Pagina principale
METAR-TAF:

METAR-TAF

Aeroporti :

Ingolstadt, Germania

latitudine: 48-43N, longitudine: 011-32E, altezza: 367 m

Osservazione

Il bollettino è stato emesso 56 minuti fa, alle 22:20 UTC
Vento 2 kt da est/nord-est
Temperature -1°C
Umidità 93%
Pressione 1016 hPa
Visibilità: 3500 m

METAR: ETSI 162220Z AUTO 07002KT 3500 // ////// M01/M02 Q1016 ///

Ora: 00:16 (23:16 UTC)


TAF: mancante

Osservazioni e previsioni meteorologiche di più di 4000 aeroporti (messaggi METAR e TAF).

Le stazioni disponibili sono rappresentate dai dischi gialli e rossi sulla carta.

Puntare il mouse per vedere il nome della stazione.

Clicca sopra per visualizzare le osservazioni e previsioni meteorologiche.

Per cambiare la mappa : fare clic sui pulsanti verdi con una croce nera per ingrandire, il pulsante verde con un trattino per diminuire, o sulla freccia verde per le mappe adiacenti.


METAR-TAF: